Time;durP1;ratioP1;P1;durP2;ratioP2;P2;SDS_P1;SDS_P2;PMS_P1;PMS_P2;Temp;Humidity;BMP_temperature;BMP_pressure;BME280_temperature;BME280_humidity;BME280_pressure;Samples;Min_cycle;Max_cycle;Signal;HPM_P1;HPM_P2
2021/08/08 00:00:42;;;;;;;2.17;1.10;;;;;;;;;;5034487;28;20926;-67
2021/08/08 00:03:08;;;;;;;2.10;1.10;;;;;;;;;;5032969;28;20780;-67
2021/08/08 00:05:34;;;;;;;2.27;1.00;;;;;;;;;;5034500;28;20434;-68
2021/08/08 00:08:01;;;;;;;5.30;1.20;;;;;;;;;;5033788;28;20476;-66
2021/08/08 00:10:27;;;;;;;6.80;1.10;;;;;;;;;;5033755;28;20489;-67
2021/08/08 00:12:53;;;;;;;2.13;1.10;;;;;;;;;;5033893;28;20977;-67
2021/08/08 00:15:19;;;;;;;1.60;0.90;;;;;;;;;;5033068;28;20430;-67
2021/08/08 00:17:45;;;;;;;1.80;0.87;;;;;;;;;;5034248;28;20421;-67
2021/08/08 00:20:12;;;;;;;1.50;1.00;;;;;;;;;;5031549;28;20812;-67
2021/08/08 00:22:38;;;;;;;1.40;0.80;;;;;;;;;;5031958;28;20431;-67
2021/08/08 00:25:05;;;;;;;1.70;0.93;;;;;;;;;;5037122;28;20426;-67
2021/08/08 00:27:31;;;;;;;1.50;0.80;;;;;;;;;;5053632;28;20925;-67
2021/08/08 00:29:57;;;;;;;1.60;0.90;;;;;;;;;;5048305;23;20498;-62
2021/08/08 00:32:23;;;;;;;1.73;0.80;;;;;;;;;;5012918;28;20789;-62
2021/08/08 00:34:49;;;;;;;2.37;1.20;;;;;;;;;;5016551;28;20407;-62
2021/08/08 00:37:16;;;;;;;1.50;0.93;;;;;;;;;;5034216;28;20395;-63
2021/08/08 00:39:42;;;;;;;2.00;1.60;;;;;;;;;;5019974;28;20447;-63
2021/08/08 00:42:08;;;;;;;2.03;0.90;;;;;;;;;;5015117;28;20466;-62
2021/08/08 00:44:34;;;;;;;2.10;0.90;;;;;;;;;;5013174;28;20419;-63
2021/08/08 00:47:00;;;;;;;1.80;1.00;;;;;;;;;;5012304;28;20420;-62
2021/08/08 00:49:26;;;;;;;1.60;0.90;;;;;;;;;;5013842;28;20514;-62
2021/08/08 00:51:52;;;;;;;2.87;1.00;;;;;;;;;;5027557;28;20434;-62
2021/08/08 00:54:18;;;;;;;1.70;0.73;;;;;;;;;;5024128;28;20511;-62
2021/08/08 00:56:44;;;;;;;1.53;0.90;;;;;;;;;;5011632;28;20481;-63
2021/08/08 00:59:10;;;;;;;2.53;1.03;;;;;;;;;;5013709;28;20423;-61
2021/08/08 01:01:39;;;;;;;1.50;0.80;;;;;;;;;;5014614;28;20958;-62
2021/08/08 01:04:06;;;;;;;1.70;1.00;;;;;;;;;;5013070;28;20432;-62
2021/08/08 01:06:38;;;;;;;2.73;0.90;;;;;;;;;;5014016;28;20406;-62
2021/08/08 01:09:05;;;;;;;2.63;1.20;;;;;;;;;;5013884;28;20501;-62
2021/08/08 01:11:32;;;;;;;3.90;1.00;;;;;;;;;;5015075;28;20403;-61
2021/08/08 01:13:59;;;;;;;1.90;0.70;;;;;;;;;;5012811;28;20518;-62
2021/08/08 01:16:26;;;;;;;2.60;1.00;;;;;;;;;;5013873;28;20447;-61
2021/08/08 01:18:53;;;;;;;1.87;0.97;;;;;;;;;;5013555;28;20790;-62
2021/08/08 01:21:21;;;;;;;2.60;1.30;;;;;;;;;;5014745;28;20446;-61
2021/08/08 01:23:58;;;;;;;1.63;0.90;;;;;;;;;;5013490;28;20427;-60
2021/08/08 01:26:27;;;;;;;1.40;0.80;;;;;;;;;;5014272;28;20465;-59
2021/08/08 01:28:55;;;;;;;2.03;0.70;;;;;;;;;;5015604;28;20447;-59
2021/08/08 01:31:21;;;;;;;1.50;0.90;;;;;;;;;;5014159;28;20423;-62
2021/08/08 01:33:47;;;;;;;1.60;0.90;;;;;;;;;;5012524;28;21447;-62
2021/08/08 01:36:17;;;;;;;1.67;0.93;;;;;;;;;;5013669;28;20436;-62
2021/08/08 01:38:44;;;;;;;1.70;0.80;;;;;;;;;;5005178;28;20516;-63
2021/08/08 01:41:11;;;;;;;1.80;1.07;;;;;;;;;;4997850;28;20448;-62
2021/08/08 01:43:39;;;;;;;4.20;1.13;;;;;;;;;;4995143;28;20897;-63
2021/08/08 01:46:07;;;;;;;1.30;0.90;;;;;;;;;;5012356;28;20415;-63
2021/08/08 01:48:34;;;;;;;1.70;0.80;;;;;;;;;;5014259;28;20404;-64
2021/08/08 01:51:00;;;;;;;1.70;0.80;;;;;;;;;;5011858;28;20443;-62
2021/08/08 01:53:27;;;;;;;1.67;0.80;;;;;;;;;;5013426;28;20423;-62
2021/08/08 01:55:53;;;;;;;1.50;1.00;;;;;;;;;;5012160;28;20550;-62
2021/08/08 01:58:19;;;;;;;1.53;1.13;;;;;;;;;;5014437;28;20421;-64
2021/08/08 02:00:49;;;;;;;1.83;1.10;;;;;;;;;;5005911;28;20446;-62
2021/08/08 02:03:15;;;;;;;1.30;0.73;;;;;;;;;;5012481;28;20431;-62
2021/08/08 02:05:41;;;;;;;1.80;0.90;;;;;;;;;;5011958;28;20510;-62
2021/08/08 02:08:07;;;;;;;1.40;0.70;;;;;;;;;;5014498;28;20462;-64
2021/08/08 02:10:33;;;;;;;1.30;0.83;;;;;;;;;;5012173;28;20466;-63
2021/08/08 02:12:59;;;;;;;1.90;0.93;;;;;;;;;;5013266;28;20401;-63
2021/08/08 02:15:25;;;;;;;2.40;0.90;;;;;;;;;;5012980;28;20455;-65
2021/08/08 02:17:51;;;;;;;1.60;1.07;;;;;;;;;;5013779;28;20411;-63
2021/08/08 02:20:18;;;;;;;2.50;1.10;;;;;;;;;;5010790;28;20447;-63
2021/08/08 02:22:47;;;;;;;3.87;0.80;;;;;;;;;;5013233;28;20412;-63
2021/08/08 02:25:14;;;;;;;3.37;1.20;;;;;;;;;;5013139;28;20760;-63
2021/08/08 02:27:40;;;;;;;1.50;0.90;;;;;;;;;;5021538;28;20415;-63
2021/08/08 02:30:08;;;;;;;2.20;0.87;;;;;;;;;;5029636;28;20561;-65
2021/08/08 02:32:34;;;;;;;1.70;1.03;;;;;;;;;;5012130;28;20499;-63
2021/08/08 02:35:00;;;;;;;1.50;0.90;;;;;;;;;;5012888;28;20534;-65
2021/08/08 02:37:26;;;;;;;1.43;0.80;;;;;;;;;;5003714;28;20404;-64
2021/08/08 02:39:53;;;;;;;2.43;1.03;;;;;;;;;;5012791;28;20507;-63
2021/08/08 02:42:19;;;;;;;1.93;1.03;;;;;;;;;;5011829;28;20423;-62
2021/08/08 02:44:45;;;;;;;3.03;1.10;;;;;;;;;;5010136;28;20416;-62
2021/08/08 02:47:11;;;;;;;1.63;0.83;;;;;;;;;;5010604;28;20427;-62
2021/08/08 02:49:37;;;;;;;2.60;1.20;;;;;;;;;;5014524;28;20467;-62
2021/08/08 02:52:03;;;;;;;2.07;1.13;;;;;;;;;;5015454;28;20458;-62
2021/08/08 02:54:29;;;;;;;3.83;1.03;;;;;;;;;;5013609;28;20419;-62
2021/08/08 02:56:55;;;;;;;2.13;0.87;;;;;;;;;;5011168;28;20420;-64
2021/08/08 02:59:21;;;;;;;1.40;0.80;;;;;;;;;;5016220;28;20857;-64
2021/08/08 03:01:47;;;;;;;2.43;1.07;;;;;;;;;;5010587;28;20428;-65
2021/08/08 03:04:13;;;;;;;1.40;0.90;;;;;;;;;;4998449;28;20920;-65
2021/08/08 03:06:48;;;;;;;1.90;1.23;;;;;;;;;;5008432;28;20936;-63
2021/08/08 03:09:14;;;;;;;2.10;0.90;;;;;;;;;;5011435;28;20455;-64
2021/08/08 03:11:45;;;;;;;2.10;1.30;;;;;;;;;;5004650;28;20425;-63
2021/08/08 03:14:12;;;;;;;1.40;0.70;;;;;;;;;;5005027;28;20422;-63
2021/08/08 03:16:38;;;;;;;1.77;1.00;;;;;;;;;;5012565;28;20435;-63
2021/08/08 03:19:04;;;;;;;2.50;1.10;;;;;;;;;;5015628;28;20502;-65
2021/08/08 03:21:30;;;;;;;1.70;0.80;;;;;;;;;;5013701;28;20947;-63
2021/08/08 03:23:56;;;;;;;2.63;1.67;;;;;;;;;;5015863;28;20430;-65
2021/08/08 03:26:22;;;;;;;1.40;0.80;;;;;;;;;;5014681;28;20435;-63
2021/08/08 03:28:48;;;;;;;1.47;0.90;;;;;;;;;;5031985;28;22357;-63
2021/08/08 03:31:15;;;;;;;1.50;0.90;;;;;;;;;;5025735;28;20471;-63
2021/08/08 03:33:41;;;;;;;1.97;0.90;;;;;;;;;;5016607;28;20494;-63
2021/08/08 03:36:07;;;;;;;1.90;0.93;;;;;;;;;;5014487;28;20489;-63
2021/08/08 03:38:33;;;;;;;2.40;1.03;;;;;;;;;;5015642;28;20403;-63
2021/08/08 03:40:59;;;;;;;1.67;0.90;;;;;;;;;;5014484;28;20459;-64
2021/08/08 03:43:25;;;;;;;1.40;0.70;;;;;;;;;;5033041;28;20768;-63
2021/08/08 03:45:52;;;;;;;1.80;0.90;;;;;;;;;;5028369;28;20958;-63
2021/08/08 03:48:18;;;;;;;2.87;1.30;;;;;;;;;;5000672;28;20984;-63
2021/08/08 03:50:44;;;;;;;1.83;1.00;;;;;;;;;;4997798;28;20468;-63
2021/08/08 03:53:10;;;;;;;1.50;0.83;;;;;;;;;;5015299;28;20420;-60
2021/08/08 03:55:36;;;;;;;1.40;0.80;;;;;;;;;;5013959;28;20880;-61
2021/08/08 03:58:02;;;;;;;1.70;1.00;;;;;;;;;;5014017;28;20427;-65
2021/08/08 04:00:28;;;;;;;2.20;0.90;;;;;;;;;;5014216;28;20428;-70
2021/08/08 04:02:54;;;;;;;2.13;1.00;;;;;;;;;;5015057;28;20415;-64
2021/08/08 04:05:20;;;;;;;1.40;0.90;;;;;;;;;;5015403;28;20408;-63
2021/08/08 04:07:46;;;;;;;1.50;0.90;;;;;;;;;;5013883;28;21063;-63
2021/08/08 04:10:13;;;;;;;2.93;1.00;;;;;;;;;;5014677;28;20541;-63
2021/08/08 04:12:39;;;;;;;1.30;0.80;;;;;;;;;;5014731;28;20435;-63
2021/08/08 04:15:05;;;;;;;3.10;1.00;;;;;;;;;;5014885;28;20404;-63
2021/08/08 04:17:32;;;;;;;2.07;1.07;;;;;;;;;;5013632;28;20432;-63
2021/08/08 04:19:58;;;;;;;2.20;0.90;;;;;;;;;;5014768;28;20459;-65
2021/08/08 04:22:24;;;;;;;2.33;1.20;;;;;;;;;;5015366;28;20432;-63
2021/08/08 04:24:50;;;;;;;1.50;0.87;;;;;;;;;;5016083;28;20420;-63
2021/08/08 04:27:16;;;;;;;1.30;0.80;;;;;;;;;;5017202;28;20454;-63
2021/08/08 04:29:42;;;;;;;1.77;0.90;;;;;;;;;;5034263;28;20467;-63
2021/08/08 04:32:09;;;;;;;2.03;0.90;;;;;;;;;;5016251;28;20943;-66
2021/08/08 04:34:35;;;;;;;1.93;0.97;;;;;;;;;;5015146;28;20408;-64
2021/08/08 04:37:01;;;;;;;2.27;0.90;;;;;;;;;;5013517;28;20435;-63
2021/08/08 04:39:28;;;;;;;1.97;0.97;;;;;;;;;;5014310;28;20423;-63
2021/08/08 04:41:54;;;;;;;1.67;0.87;;;;;;;;;;5013725;28;20436;-63
2021/08/08 04:44:20;;;;;;;1.40;1.00;;;;;;;;;;5014971;28;20777;-63
2021/08/08 04:46:47;;;;;;;1.50;0.80;;;;;;;;;;5013427;28;20864;-62
2021/08/08 04:49:13;;;;;;;1.47;0.90;;;;;;;;;;5014120;28;20455;-63
2021/08/08 04:51:39;;;;;;;1.70;0.87;;;;;;;;;;5006428;28;20519;-63
2021/08/08 04:54:05;;;;;;;1.60;1.00;;;;;;;;;;5013571;28;20404;-64
2021/08/08 04:56:31;;;;;;;2.40;1.07;;;;;;;;;;5013475;28;20428;-62
2021/08/08 04:58:57;;;;;;;1.87;1.00;;;;;;;;;;5014161;28;20404;-63
2021/08/08 05:01:23;;;;;;;3.90;1.20;;;;;;;;;;5013918;28;20770;-62
2021/08/08 05:03:49;;;;;;;1.57;1.10;;;;;;;;;;5015777;28;20825;-62
2021/08/08 05:06:15;;;;;;;1.60;1.10;;;;;;;;;;5010365;28;20622;-62
2021/08/08 05:08:42;;;;;;;1.60;0.90;;;;;;;;;;5014091;28;20407;-63
2021/08/08 05:11:08;;;;;;;2.50;1.00;;;;;;;;;;5013473;28;20444;-63
2021/08/08 05:13:34;;;;;;;1.70;1.10;;;;;;;;;;5014205;28;20813;-62
2021/08/08 05:16:00;;;;;;;2.07;1.23;;;;;;;;;;5012711;28;20400;-64
2021/08/08 05:18:26;;;;;;;1.53;0.90;;;;;;;;;;5011883;28;20397;-64
2021/08/08 05:20:52;;;;;;;2.87;1.00;;;;;;;;;;5013593;28;20923;-62
2021/08/08 05:23:18;;;;;;;3.03;1.10;;;;;;;;;;5013499;28;20416;-66
2021/08/08 05:25:45;;;;;;;1.60;1.00;;;;;;;;;;5012859;28;20470;-62
2021/08/08 05:28:11;;;;;;;2.80;1.10;;;;;;;;;;5025123;28;20805;-64
2021/08/08 05:30:37;;;;;;;2.60;1.07;;;;;;;;;;5012938;28;20992;-64
2021/08/08 05:33:03;;;;;;;1.97;1.10;;;;;;;;;;5014168;28;20416;-62
2021/08/08 05:35:29;;;;;;;2.70;1.10;;;;;;;;;;5012551;28;20510;-62
2021/08/08 05:37:55;;;;;;;2.07;1.40;;;;;;;;;;5013466;28;20400;-62
2021/08/08 05:40:21;;;;;;;1.80;1.00;;;;;;;;;;5013150;28;20459;-62
2021/08/08 05:42:50;;;;;;;1.80;0.90;;;;;;;;;;5014225;28;20502;-63
2021/08/08 05:45:19;;;;;;;2.60;1.10;;;;;;;;;;5010031;28;20431;-64
2021/08/08 05:47:45;;;;;;;3.07;0.90;;;;;;;;;;5001350;28;20432;-62
2021/08/08 05:50:11;;;;;;;1.60;0.90;;;;;;;;;;5012076;28;20467;-62
2021/08/08 05:52:37;;;;;;;2.07;1.17;;;;;;;;;;5013515;28;20395;-62
2021/08/08 05:55:04;;;;;;;2.37;1.10;;;;;;;;;;5012895;28;20920;-62
2021/08/08 05:57:30;;;;;;;1.60;0.80;;;;;;;;;;5013653;28;20757;-62
2021/08/08 05:59:56;;;;;;;2.03;1.20;;;;;;;;;;5012436;28;21013;-64
2021/08/08 06:02:22;;;;;;;2.17;1.07;;;;;;;;;;5013419;28;20411;-62
2021/08/08 06:04:49;;;;;;;1.50;0.80;;;;;;;;;;5012827;28;20428;-63
2021/08/08 06:07:15;;;;;;;1.33;0.70;;;;;;;;;;5013634;28;20446;-63
2021/08/08 06:09:41;;;;;;;1.60;0.87;;;;;;;;;;5012741;28;20482;-63
2021/08/08 06:12:10;;;;;;;2.17;0.90;;;;;;;;;;5013220;28;20408;-63
2021/08/08 06:14:36;;;;;;;1.57;0.87;;;;;;;;;;5012740;28;20431;-63
2021/08/08 06:17:02;;;;;;;1.97;0.90;;;;;;;;;;5011762;28;20414;-65
2021/08/08 06:19:28;;;;;;;1.40;0.90;;;;;;;;;;5011950;28;20460;-62
2021/08/08 06:21:54;;;;;;;3.83;1.17;;;;;;;;;;5011814;28;20434;-62
2021/08/08 06:24:20;;;;;;;1.80;0.90;;;;;;;;;;5025071;28;20463;-62
2021/08/08 06:26:47;;;;;;;1.50;0.90;;;;;;;;;;5016813;28;20503;-63
2021/08/08 06:29:13;;;;;;;5.13;0.83;;;;;;;;;;5017003;28;20454;-65
2021/08/08 06:31:39;;;;;;;2.20;1.00;;;;;;;;;;5018774;28;20435;-64
2021/08/08 06:34:05;;;;;;;2.93;1.13;;;;;;;;;;5018503;28;20951;-63
2021/08/08 06:36:31;;;;;;;4.23;0.97;;;;;;;;;;5015496;28;20469;-63
2021/08/08 06:39:00;;;;;;;1.70;1.00;;;;;;;;;;5015339;28;23205;-61
2021/08/08 06:41:26;;;;;;;4.20;2.60;;;;;;;;;;5016493;28;20430;-61
2021/08/08 06:47:06;;;;;;;1.80;1.00;;;;;;;;;;5009267;28;20450;-61
2021/08/08 06:49:32;;;;;;;3.83;1.40;;;;;;;;;;5011858;28;20462;-59
2021/08/08 06:51:58;;;;;;;1.60;1.00;;;;;;;;;;5015597;28;20455;-61
2021/08/08 06:54:24;;;;;;;1.70;1.00;;;;;;;;;;5014791;28;20432;-61
2021/08/08 06:56:50;;;;;;;2.17;1.30;;;;;;;;;;5014147;28;20503;-63
2021/08/08 06:59:17;;;;;;;2.10;1.10;;;;;;;;;;5014453;28;20431;-64
2021/08/08 07:01:43;;;;;;;1.93;1.00;;;;;;;;;;5016630;28;20979;-63
2021/08/08 07:04:09;;;;;;;1.83;0.90;;;;;;;;;;5006163;28;20435;-64
2021/08/08 07:06:35;;;;;;;1.67;0.90;;;;;;;;;;5016179;28;20801;-65
2021/08/08 07:09:02;;;;;;;1.53;0.93;;;;;;;;;;5014423;28;20893;-63
2021/08/08 07:11:28;;;;;;;1.50;0.90;;;;;;;;;;5017452;28;20495;-61
2021/08/08 07:13:54;;;;;;;1.83;0.90;;;;;;;;;;5014623;28;20408;-59
2021/08/08 07:16:20;;;;;;;1.90;1.17;;;;;;;;;;5015198;28;20503;-61
2021/08/08 07:18:46;;;;;;;2.73;1.17;;;;;;;;;;5013240;28;20451;-61
2021/08/08 07:21:12;;;;;;;1.97;1.17;;;;;;;;;;5016094;28;20446;-61
2021/08/08 07:23:38;;;;;;;2.67;1.10;;;;;;;;;;5014904;28;20419;-61
2021/08/08 07:26:04;;;;;;;1.93;1.10;;;;;;;;;;5014316;28;20473;-61
2021/08/08 07:28:30;;;;;;;1.93;1.00;;;;;;;;;;5014426;28;20424;-62
2021/08/08 07:30:56;;;;;;;2.53;1.10;;;;;;;;;;5014007;28;20471;-61
2021/08/08 07:33:22;;;;;;;4.23;1.10;;;;;;;;;;5015317;28;20471;-61
2021/08/08 07:35:50;;;;;;;1.67;0.83;;;;;;;;;;5014212;28;20455;-61
2021/08/08 07:38:16;;;;;;;2.80;1.30;;;;;;;;;;5015546;28;20765;-61
2021/08/08 07:40:42;;;;;;;1.80;0.90;;;;;;;;;;5017555;28;20960;-61
2021/08/08 07:43:10;;;;;;;1.77;1.00;;;;;;;;;;5015532;28;20450;-61
2021/08/08 07:45:36;;;;;;;3.70;1.20;;;;;;;;;;5011887;28;20434;-62
2021/08/08 07:48:03;;;;;;;2.50;1.10;;;;;;;;;;4995740;28;20396;-63
2021/08/08 07:50:29;;;;;;;3.20;0.80;;;;;;;;;;5007593;28;20462;-62
2021/08/08 07:52:55;;;;;;;1.70;0.90;;;;;;;;;;5012917;28;20876;-62
2021/08/08 07:55:23;;;;;;;4.93;1.00;;;;;;;;;;5014503;28;20734;-63
2021/08/08 07:57:49;;;;;;;3.30;1.37;;;;;;;;;;5015066;28;20612;-63
2021/08/08 08:00:15;;;;;;;2.00;0.97;;;;;;;;;;5014663;28;20454;-62
2021/08/08 08:02:41;;;;;;;1.90;1.03;;;;;;;;;;5023400;28;20423;-62
2021/08/08 08:05:07;;;;;;;3.20;1.10;;;;;;;;;;5013010;28;20427;-62
2021/08/08 08:07:33;;;;;;;3.00;1.10;;;;;;;;;;5014740;28;20419;-62
2021/08/08 08:10:00;;;;;;;2.30;1.00;;;;;;;;;;5018485;28;20472;-62
2021/08/08 08:12:26;;;;;;;3.67;0.87;;;;;;;;;;5011641;28;20462;-62
2021/08/08 08:14:52;;;;;;;2.57;1.67;;;;;;;;;;5014126;28;20748;-62
2021/08/08 08:17:18;;;;;;;1.60;0.90;;;;;;;;;;5014854;28;20403;-62
2021/08/08 08:19:45;;;;;;;2.63;1.20;;;;;;;;;;5015032;28;20427;-62
2021/08/08 08:22:15;;;;;;;2.07;1.10;;;;;;;;;;5033377;28;20422;-63
2021/08/08 08:24:42;;;;;;;1.70;0.93;;;;;;;;;;5034456;28;20395;-63
2021/08/08 08:27:08;;;;;;;2.00;0.97;;;;;;;;;;5014532;28;20805;-63
2021/08/08 08:29:34;;;;;;;1.97;0.90;;;;;;;;;;5015102;28;20887;-63
2021/08/08 08:32:00;;;;;;;1.77;0.90;;;;;;;;;;5031776;28;20819;-63
2021/08/08 08:34:26;;;;;;;2.03;1.00;;;;;;;;;;5034615;28;20486;-63
2021/08/08 08:36:52;;;;;;;2.83;1.10;;;;;;;;;;5016009;28;20426;-62
2021/08/08 08:39:18;;;;;;;3.00;1.00;;;;;;;;;;5014942;28;20522;-62
2021/08/08 08:41:45;;;;;;;1.40;0.70;;;;;;;;;;5014401;28;20431;-63
2021/08/08 08:44:11;;;;;;;2.20;1.00;;;;;;;;;;5013081;28;20991;-62
2021/08/08 08:46:37;;;;;;;6.47;1.30;;;;;;;;;;5012866;28;20435;-63
2021/08/08 08:49:03;;;;;;;4.63;1.00;;;;;;;;;;5015086;28;20494;-62
2021/08/08 08:51:56;;;;;;;2.23;1.10;;;;;;;;;;5013811;28;20423;-62
2021/08/08 08:54:23;;;;;;;1.80;0.83;;;;;;;;;;5011218;28;20510;-62
2021/08/08 08:56:50;;;;;;;1.40;0.70;;;;;;;;;;5013084;28;20427;-62
2021/08/08 08:59:16;;;;;;;2.23;1.10;;;;;;;;;;5015806;28;20791;-62
2021/08/08 09:01:42;;;;;;;2.90;1.00;;;;;;;;;;5013619;28;20435;-62
2021/08/08 09:04:08;;;;;;;3.43;0.97;;;;;;;;;;5012902;28;20842;-62
2021/08/08 09:06:34;;;;;;;2.73;1.00;;;;;;;;;;5013086;28;20515;-62
2021/08/08 09:09:00;;;;;;;2.33;1.00;;;;;;;;;;5013473;28;20415;-62
2021/08/08 09:11:37;;;;;;;2.77;1.27;;;;;;;;;;5012291;28;20490;-62
2021/08/08 09:14:04;;;;;;;3.00;0.97;;;;;;;;;;5014586;28;20388;-62
2021/08/08 09:16:36;;;;;;;2.40;1.10;;;;;;;;;;5012886;28;20523;-62
2021/08/08 09:19:02;;;;;;;2.13;0.90;;;;;;;;;;5014372;28;20439;-62
2021/08/08 09:21:28;;;;;;;1.80;0.90;;;;;;;;;;5017559;28;20419;-62
2021/08/08 09:23:56;;;;;;;1.80;1.00;;;;;;;;;;5014091;28;20485;-64
2021/08/08 09:26:33;;;;;;;1.50;0.70;;;;;;;;;;5012689;28;20449;-62
2021/08/08 09:29:13;;;;;;;2.53;0.87;;;;;;;;;;5014440;28;20445;-62
2021/08/08 09:31:48;;;;;;;2.07;0.80;;;;;;;;;;5008923;28;20419;-63
2021/08/08 09:34:23;;;;;;;4.03;1.20;;;;;;;;;;5033360;28;20474;-62
2021/08/08 09:36:50;;;;;;;1.80;1.17;;;;;;;;;;5017837;28;20422;-62
2021/08/08 09:39:34;;;;;;;2.20;0.90;;;;;;;;;;5016143;28;20765;-62
2021/08/08 09:42:07;;;;;;;2.00;1.30;;;;;;;;;;5012489;28;20427;-62
2021/08/08 09:44:34;;;;;;;2.87;0.97;;;;;;;;;;5011359;28;20450;-62
2021/08/08 09:47:00;;;;;;;2.43;1.20;;;;;;;;;;5011322;28;20419;-62
2021/08/08 09:49:26;;;;;;;2.23;0.90;;;;;;;;;;5014580;28;20463;-63
2021/08/08 09:51:53;;;;;;;1.60;0.70;;;;;;;;;;5012923;28;20459;-62
2021/08/08 09:54:19;;;;;;;1.50;0.80;;;;;;;;;;5013426;28;20434;-62
2021/08/08 09:56:56;;;;;;;3.93;1.10;;;;;;;;;;5012649;28;20423;-64
2021/08/08 09:59:22;;;;;;;1.80;0.90;;;;;;;;;;5017700;28;20576;-63
2021/08/08 10:01:48;;;;;;;1.97;0.93;;;;;;;;;;5016212;28;20430;-63
2021/08/08 10:04:14;;;;;;;5.33;1.00;;;;;;;;;;5017534;28;20407;-63
2021/08/08 10:06:40;;;;;;;1.70;0.80;;;;;;;;;;5016241;28;20467;-63
2021/08/08 10:09:07;;;;;;;4.90;1.03;;;;;;;;;;5018394;28;20469;-63
2021/08/08 10:11:34;;;;;;;2.23;1.10;;;;;;;;;;5016510;28;20520;-63
2021/08/08 10:14:03;;;;;;;1.90;0.93;;;;;;;;;;5017809;28;20990;-63
2021/08/08 10:16:35;;;;;;;1.90;0.80;;;;;;;;;;5016255;28;20423;-63
2021/08/08 10:19:02;;;;;;;2.17;1.03;;;;;;;;;;5019392;28;20411;-63
2021/08/08 10:21:31;;;;;;;2.10;0.90;;;;;;;;;;5016385;28;20431;-63
2021/08/08 10:24:06;;;;;;;2.00;1.10;;;;;;;;;;5016992;28;20422;-63
2021/08/08 10:26:32;;;;;;;2.13;1.00;;;;;;;;;;5016269;28;20504;-63
2021/08/08 10:28:59;;;;;;;5.87;0.83;;;;;;;;;;5018027;28;20498;-64
2021/08/08 10:31:26;;;;;;;1.60;0.80;;;;;;;;;;5019349;28;20449;-63
2021/08/08 10:33:56;;;;;;;3.40;1.10;;;;;;;;;;5037190;28;20401;-63
2021/08/08 10:36:27;;;;;;;2.10;0.80;;;;;;;;;;5027363;28;20815;-63
2021/08/08 10:38:54;;;;;;;1.80;0.90;;;;;;;;;;5018049;28;20414;-63
2021/08/08 10:41:20;;;;;;;1.50;0.70;;;;;;;;;;5015577;28;20449;-63
2021/08/08 10:43:47;;;;;;;2.73;0.80;;;;;;;;;;5016763;28;20399;-63
2021/08/08 10:46:16;;;;;;;1.80;0.80;;;;;;;;;;5015607;28;20481;-63
2021/08/08 10:48:43;;;;;;;2.43;1.07;;;;;;;;;;5017539;28;20407;-63
2021/08/08 10:51:16;;;;;;;2.80;0.80;;;;;;;;;;5013096;28;20463;-63
2021/08/08 10:53:42;;;;;;;1.80;0.80;;;;;;;;;;5016698;28;20820;-63
2021/08/08 10:56:10;;;;;;;1.67;0.73;;;;;;;;;;5015388;28;20542;-63
2021/08/08 10:58:37;;;;;;;1.37;0.60;;;;;;;;;;5017854;28;20407;-63
2021/08/08 11:01:16;;;;;;;7.63;1.63;;;;;;;;;;5015143;28;20489;-63
2021/08/08 11:03:55;;;;;;;1.97;0.90;;;;;;;;;;5015236;28;20429;-63
2021/08/08 11:06:25;;;;;;;2.07;0.80;;;;;;;;;;5015978;28;20508;-63
2021/08/08 11:08:58;;;;;;;2.07;0.70;;;;;;;;;;5017023;28;20419;-63
2021/08/08 11:11:43;;;;;;;2.67;0.83;;;;;;;;;;5026664;28;20489;-63
2021/08/08 11:14:09;;;;;;;2.93;1.10;;;;;;;;;;5016265;28;20394;-63
2021/08/08 11:16:35;;;;;;;3.00;1.00;;;;;;;;;;5015893;28;20427;-63
2021/08/08 11:19:01;;;;;;;1.77;0.93;;;;;;;;;;5016355;28;20903;-63
2021/08/08 11:21:27;;;;;;;2.40;0.80;;;;;;;;;;5014896;28;20861;-63
2021/08/08 11:23:54;;;;;;;1.80;0.90;;;;;;;;;;5014805;28;20509;-63
2021/08/08 11:26:20;;;;;;;5.47;0.90;;;;;;;;;;5014273;28;20572;-63
2021/08/08 11:29:00;;;;;;;2.30;0.90;;;;;;;;;;5016337;28;20887;-63
2021/08/08 11:31:27;;;;;;;1.50;0.70;;;;;;;;;;5018002;28;20438;-63
2021/08/08 11:33:57;;;;;;;1.97;0.83;;;;;;;;;;5035688;28;20494;-63
2021/08/08 11:36:32;;;;;;;1.43;0.80;;;;;;;;;;5024901;28;20788;-63
2021/08/08 11:38:59;;;;;;;2.17;0.93;;;;;;;;;;5016304;28;20426;-63
2021/08/08 11:41:25;;;;;;;2.53;0.90;;;;;;;;;;5009956;28;20538;-63
2021/08/08 11:44:01;;;;;;;2.07;0.90;;;;;;;;;;4996365;28;20420;-64
2021/08/08 11:46:27;;;;;;;3.30;0.90;;;;;;;;;;5001543;28;20441;-63
2021/08/08 11:48:53;;;;;;;2.00;0.90;;;;;;;;;;5015939;28;20466;-63
2021/08/08 11:51:20;;;;;;;1.80;0.90;;;;;;;;;;5014054;28;20463;-63
2021/08/08 11:53:52;;;;;;;3.10;0.80;;;;;;;;;;5015489;28;20810;-63
2021/08/08 11:56:22;;;;;;;1.50;0.70;;;;;;;;;;5014824;28;20428;-63
2021/08/08 11:58:49;;;;;;;1.80;0.80;;;;;;;;;;5014743;28;20510;-64
2021/08/08 12:01:19;;;;;;;2.80;1.53;;;;;;;;;;5029457;28;20444;-68
2021/08/08 12:03:45;;;;;;;2.33;1.07;;;;;;;;;;5015366;28;20753;-65
2021/08/08 12:06:11;;;;;;;4.30;0.97;;;;;;;;;;5014358;28;20411;-62
2021/08/08 12:08:38;;;;;;;1.70;0.80;;;;;;;;;;5015733;28;20403;-62
2021/08/08 12:11:04;;;;;;;3.77;0.97;;;;;;;;;;5014001;28;20462;-62
2021/08/08 12:13:30;;;;;;;1.70;0.80;;;;;;;;;;4995342;28;20419;-62
2021/08/08 12:15:56;;;;;;;2.60;1.13;;;;;;;;;;4999444;28;20406;-62
2021/08/08 12:18:28;;;;;;;3.03;1.37;;;;;;;;;;5014028;28;20450;-63
2021/08/08 12:20:54;;;;;;;1.83;0.90;;;;;;;;;;5014862;28;20442;-60
2021/08/08 12:23:24;;;;;;;2.63;1.27;;;;;;;;;;5013139;28;20506;-60
2021/08/08 12:26:00;;;;;;;2.20;1.20;;;;;;;;;;5015337;28;20420;-60
2021/08/08 12:28:26;;;;;;;4.40;1.57;;;;;;;;;;5014692;28;20469;-60
2021/08/08 12:31:03;;;;;;;2.77;0.80;;;;;;;;;;5013513;28;20558;-63
2021/08/08 12:33:29;;;;;;;2.90;1.07;;;;;;;;;;5014520;28;20418;-60
2021/08/08 12:35:55;;;;;;;2.17;1.00;;;;;;;;;;5015017;28;20435;-60
2021/08/08 12:38:21;;;;;;;2.80;0.97;;;;;;;;;;5013873;28;20431;-60
2021/08/08 12:40:56;;;;;;;3.10;1.17;;;;;;;;;;5014236;28;20525;-60
2021/08/08 12:43:26;;;;;;;2.07;1.20;;;;;;;;;;5013420;28;20466;-60
2021/08/08 12:45:53;;;;;;;4.40;1.47;;;;;;;;;;5011462;28;20423;-60
2021/08/08 12:48:29;;;;;;;4.60;1.33;;;;;;;;;;5009490;28;20782;-62
2021/08/08 12:50:56;;;;;;;2.33;0.93;;;;;;;;;;5008740;28;20561;-61
2021/08/08 12:53:22;;;;;;;2.27;0.70;;;;;;;;;;5012583;28;20917;-61
2021/08/08 12:55:49;;;;;;;2.70;1.00;;;;;;;;;;5014450;28;20465;-61
2021/08/08 12:58:15;;;;;;;2.30;0.80;;;;;;;;;;5013998;28;20423;-61
2021/08/08 13:00:41;;;;;;;6.40;1.10;;;;;;;;;;5012943;28;20443;-62
2021/08/08 13:03:07;;;;;;;2.53;0.90;;;;;;;;;;5011140;28;20438;-61
2021/08/08 13:05:33;;;;;;;3.20;0.80;;;;;;;;;;5015689;28;20454;-62
2021/08/08 13:07:59;;;;;;;2.63;1.10;;;;;;;;;;5013184;28;20423;-62
2021/08/08 13:10:25;;;;;;;2.33;1.00;;;;;;;;;;5013964;28;20901;-62
2021/08/08 13:12:52;;;;;;;3.83;1.00;;;;;;;;;;5012309;28;20428;-61
2021/08/08 13:15:18;;;;;;;2.10;1.23;;;;;;;;;;5014252;28;20466;-62
2021/08/08 13:17:44;;;;;;;2.03;1.03;;;;;;;;;;5013489;28;20786;-64
2021/08/08 13:20:11;;;;;;;1.97;0.90;;;;;;;;;;5011144;28;20452;-62
2021/08/08 13:22:38;;;;;;;2.07;0.90;;;;;;;;;;5012295;28;20522;-62
2021/08/08 13:25:05;;;;;;;2.50;1.10;;;;;;;;;;5014567;28;20411;-62
2021/08/08 13:27:31;;;;;;;1.90;0.90;;;;;;;;;;5012245;28;20506;-60
2021/08/08 13:29:57;;;;;;;1.67;0.90;;;;;;;;;;5012655;28;20471;-60
2021/08/08 13:32:23;;;;;;;1.90;0.87;;;;;;;;;;5011356;28;20423;-60
2021/08/08 13:34:49;;;;;;;2.13;0.70;;;;;;;;;;5018840;28;20473;-62
2021/08/08 13:37:15;;;;;;;3.17;1.17;;;;;;;;;;5012332;28;20447;-60
2021/08/08 13:39:41;;;;;;;2.50;1.10;;;;;;;;;;5012811;28;20435;-62
2021/08/08 13:42:07;;;;;;;2.60;0.87;;;;;;;;;;5013480;28;20423;-61
2021/08/08 13:44:33;;;;;;;2.97;1.33;;;;;;;;;;5016091;28;20958;-61
2021/08/08 13:46:59;;;;;;;5.53;1.27;;;;;;;;;;5012740;28;20528;-61
2021/08/08 13:49:29;;;;;;;2.47;0.80;;;;;;;;;;5011917;28;20474;-62
2021/08/08 13:51:55;;;;;;;7.30;1.27;;;;;;;;;;5018258;28;20427;-62
2021/08/08 13:54:22;;;;;;;2.07;1.10;;;;;;;;;;5014193;28;20412;-62
2021/08/08 13:56:48;;;;;;;3.27;1.37;;;;;;;;;;5012361;28;20415;-62
2021/08/08 13:59:15;;;;;;;2.33;1.30;;;;;;;;;;5014029;28;20883;-60
2021/08/08 14:01:41;;;;;;;2.30;1.30;;;;;;;;;;5019510;28;20431;-59
2021/08/08 14:04:07;;;;;;;3.23;1.00;;;;;;;;;;5005347;28;20519;-60
2021/08/08 14:06:33;;;;;;;1.70;0.83;;;;;;;;;;4993382;28;20450;-60
2021/08/08 14:08:59;;;;;;;3.57;2.53;;;;;;;;;;5013590;28;20435;-60
2021/08/08 14:11:25;;;;;;;2.77;1.40;;;;;;;;;;5012329;28;20442;-60
2021/08/08 14:13:51;;;;;;;2.10;0.80;;;;;;;;;;5012673;28;20449;-60
2021/08/08 14:16:18;;;;;;;4.80;1.23;;;;;;;;;;5013489;28;20803;-60
2021/08/08 14:18:44;;;;;;;1.90;1.00;;;;;;;;;;5012610;28;20419;-60
2021/08/08 14:21:10;;;;;;;2.10;0.80;;;;;;;;;;5013670;28;20490;-60
2021/08/08 14:23:36;;;;;;;2.90;1.00;;;;;;;;;;5012370;28;20446;-58
2021/08/08 14:26:02;;;;;;;1.70;1.13;;;;;;;;;;5013499;28;20400;-60
2021/08/08 14:28:28;;;;;;;6.40;1.30;;;;;;;;;;5012987;28;20525;-60
2021/08/08 14:30:54;;;;;;;2.50;1.50;;;;;;;;;;5013901;28;20816;-59
2021/08/08 14:33:20;;;;;;;1.97;1.23;;;;;;;;;;5012287;28;20553;-58
2021/08/08 14:35:46;;;;;;;1.77;1.00;;;;;;;;;;5013669;28;20411;-59
2021/08/08 14:38:12;;;;;;;3.30;1.00;;;;;;;;;;5013279;28;20437;-60
2021/08/08 14:40:38;;;;;;;2.77;1.53;;;;;;;;;;5012117;28;20459;-60
2021/08/08 14:43:04;;;;;;;4.87;1.10;;;;;;;;;;5011939;28;20497;-59
2021/08/08 14:45:30;;;;;;;3.90;1.87;;;;;;;;;;5012484;28;20431;-59